Time;durP1;ratioP1;P1;durP2;ratioP2;P2;SDS_P1;SDS_P2;PMS_P1;PMS_P2;Temp;Humidity;BMP_temperature;BMP_pressure;BME280_temperature;BME280_humidity;BME280_pressure;Samples;Min_cycle;Max_cycle;Signal;HPM_P1;HPM_P2
2023/01/26 00:01:17;;;;;;;0.73;0.73;;;4.50;99.90;;;;;;5074669;28;20662;-73
2023/01/26 00:03:43;;;;;;;0.70;0.70;;;4.40;99.90;;;;;;5092523;28;20235;-72
2023/01/26 00:06:13;;;;;;;0.60;0.60;;;4.40;99.90;;;;;;5092795;28;20188;-72
2023/01/26 00:08:40;;;;;;;0.55;0.55;;;4.30;99.90;;;;;;5092535;28;20704;-72
2023/01/26 00:11:07;;;;;;;0.70;0.70;;;4.30;99.90;;;;;;5092705;28;20188;-71
2023/01/26 00:13:34;;;;;;;0.50;0.50;;;4.30;99.90;;;;;;5092535;28;20232;-72
2023/01/26 00:16:00;;;;;;;0.50;0.50;;;4.30;99.90;;;;;;5092764;28;20215;-72
2023/01/26 00:18:26;;;;;;;0.43;0.43;;;4.30;99.90;;;;;;5087499;28;20296;-72
2023/01/26 00:20:56;;;;;;;0.70;0.70;;;4.30;99.90;;;;;;5076525;28;20722;-72
2023/01/26 00:23:22;;;;;;;0.50;0.50;;;4.30;99.90;;;;;;5092487;28;20705;-72
2023/01/26 00:25:48;;;;;;;0.60;0.60;;;4.20;99.90;;;;;;5091560;28;20233;-73
2023/01/26 00:28:14;;;;;;;0.43;0.43;;;4.20;99.90;;;;;;5093260;28;20269;-73
2023/01/26 00:30:40;;;;;;;0.52;0.52;;;4.20;99.90;;;;;;5092479;28;20775;-72
2023/01/26 00:33:05;;;;;;;0.60;0.60;;;4.10;99.90;;;;;;5092472;28;20200;-73
2023/01/26 00:35:31;;;;;;;0.60;0.60;;;4.10;99.90;;;;;;5091118;28;20239;-73
2023/01/26 00:37:57;;;;;;;0.60;0.60;;;4.10;99.90;;;;;;5091314;28;20212;-72
2023/01/26 00:40:22;;;;;;;0.40;0.40;;;4.10;99.90;;;;;;5090845;28;20223;-72
2023/01/26 00:42:48;;;;;;;0.50;0.50;;;4.10;99.90;;;;;;5092602;28;20196;-72
2023/01/26 00:45:14;;;;;;;0.70;0.70;;;4.10;99.90;;;;;;5091434;28;20655;-72
2023/01/26 00:47:39;;;;;;;0.50;0.50;;;4.00;99.90;;;;;;5096567;28;20657;-72
2023/01/26 00:50:06;;;;;;;0.70;0.70;;;4.00;99.90;;;;;;5096507;28;20180;-72
2023/01/26 00:52:32;;;;;;;0.60;0.60;;;4.00;99.90;;;;;;5096083;28;20201;-73
2023/01/26 00:54:58;;;;;;;1.13;1.02;;;3.90;99.90;;;;;;5096349;28;20259;-72
2023/01/26 00:57:23;;;;;;;0.50;0.50;;;3.80;99.90;;;;;;5096038;28;20196;-73
2023/01/26 00:59:49;;;;;;;0.50;0.50;;;3.80;99.90;;;;;;5095011;28;20321;-73
2023/01/26 01:02:15;;;;;;;0.50;0.50;;;3.80;99.90;;;;;;5096066;28;20224;-72
2023/01/26 01:04:40;;;;;;;0.50;0.50;;;3.80;99.90;;;;;;5094245;28;20259;-72
2023/01/26 01:07:06;;;;;;;0.68;0.68;;;3.80;99.90;;;;;;5094589;28;20204;-72
2023/01/26 01:09:32;;;;;;;0.50;0.50;;;3.80;99.90;;;;;;5095827;28;20558;-73
2023/01/26 01:11:58;;;;;;;0.60;0.60;;;3.70;99.90;;;;;;5096239;28;20503;-72
2023/01/26 01:14:24;;;;;;;0.98;0.98;;;3.70;99.90;;;;;;5095708;28;20241;-73
2023/01/26 01:16:49;;;;;;;0.60;0.60;;;3.70;99.90;;;;;;5095185;28;20287;-72
2023/01/26 01:19:17;;;;;;;0.52;0.52;;;3.70;99.90;;;;;;5095854;28;20274;-72
2023/01/26 01:21:44;;;;;;;0.70;0.70;;;3.60;99.90;;;;;;5095675;28;20188;-72
2023/01/26 01:24:10;;;;;;;1.05;1.05;;;3.70;99.90;;;;;;5094438;28;20731;-73
2023/01/26 01:26:37;;;;;;;0.60;0.60;;;3.70;99.90;;;;;;5095164;28;20253;-72
2023/01/26 01:29:03;;;;;;;0.50;0.50;;;3.70;99.90;;;;;;5095566;28;20598;-72
2023/01/26 01:31:29;;;;;;;0.60;0.60;;;3.70;99.90;;;;;;5095486;28;20196;-73
2023/01/26 01:33:56;;;;;;;0.70;0.70;;;3.80;99.90;;;;;;5094301;28;20214;-72
2023/01/26 01:36:22;;;;;;;0.50;0.50;;;3.70;99.90;;;;;;5095020;28;20223;-73
2023/01/26 01:38:48;;;;;;;0.60;0.60;;;3.70;99.90;;;;;;5095530;28;20240;-72
2023/01/26 01:41:16;;;;;;;0.63;0.63;;;3.70;99.90;;;;;;5094078;28;20196;-72
2023/01/26 01:43:42;;;;;;;0.70;0.70;;;3.70;99.90;;;;;;5093883;28;20194;-72
2023/01/26 01:46:16;;;;;;;0.55;0.55;;;3.80;99.90;;;;;;5095417;28;20557;-72
2023/01/26 01:48:54;;;;;;;0.50;0.50;;;3.80;99.90;;;;;;5095107;28;20192;-72
2023/01/26 01:51:37;;;;;;;0.60;0.60;;;3.70;99.90;;;;;;5095164;28;20188;-73
2023/01/26 01:54:07;;;;;;;0.60;0.60;;;3.70;99.90;;;;;;5095230;28;20277;-72
2023/01/26 01:56:35;;;;;;;0.60;0.60;;;3.70;99.90;;;;;;5093331;28;20212;-72
2023/01/26 01:59:03;;;;;;;0.55;0.55;;;3.60;99.90;;;;;;5095096;28;20195;-72
2023/01/26 02:01:29;;;;;;;0.55;0.55;;;3.60;99.90;;;;;;5093419;28;20198;-73
2023/01/26 02:03:59;;;;;;;0.65;0.65;;;3.60;99.90;;;;;;5085436;22;20242;-74
2023/01/26 02:06:38;;;;;;;0.60;0.60;;;3.60;99.90;;;;;;5054087;28;20213;-74
2023/01/26 02:09:05;;;;;;;0.65;0.65;;;3.60;99.90;;;;;;5053315;28;20247;-74
2023/01/26 02:11:40;;;;;;;0.57;0.57;;;3.60;99.90;;;;;;5052282;28;20210;-74
2023/01/26 02:14:09;;;;;;;0.60;0.60;;;3.50;99.90;;;;;;5053667;28;20684;-75
2023/01/26 02:16:35;;;;;;;0.57;0.57;;;3.50;99.90;;;;;;5053539;28;20202;-74
2023/01/26 02:19:01;;;;;;;0.60;0.60;;;3.40;99.90;;;;;;5052412;28;20197;-74
2023/01/26 02:21:30;;;;;;;0.50;0.50;;;3.40;99.90;;;;;;5053284;28;20194;-74
2023/01/26 02:24:10;;;;;;;0.70;0.70;;;3.40;99.90;;;;;;5052637;28;20205;-75
2023/01/26 02:26:37;;;;;;;0.60;0.60;;;3.40;99.90;;;;;;5053212;28;20193;-74
2023/01/26 02:29:08;;;;;;;0.50;0.50;;;3.40;99.90;;;;;;5052418;28;20194;-75
2023/01/26 02:31:35;;;;;;;0.60;0.60;;;3.40;99.90;;;;;;5053189;28;20204;-74
2023/01/26 02:34:01;;;;;;;0.70;0.70;;;3.40;99.90;;;;;;5040752;28;20201;-74
2023/01/26 02:36:31;;;;;;;0.65;0.65;;;3.40;99.90;;;;;;5033363;28;20198;-74
2023/01/26 02:39:03;;;;;;;0.68;0.68;;;3.40;99.90;;;;;;5032111;28;20282;-74
2023/01/26 02:44:25;;;;;;;0.50;0.50;;;3.50;99.90;;;;;;4995231;28;20267;-75
2023/01/26 02:46:52;;;;;;;0.75;0.75;;;3.60;99.90;;;;;;5032447;28;20660;-74
2023/01/26 02:52:04;;;;;;;0.60;0.60;;;3.50;99.90;;;;;;5032554;28;20257;-76
2023/01/26 02:57:14;;;;;;;0.52;0.52;;;3.70;99.90;;;;;;5032646;28;20277;-74
2023/01/26 02:59:40;;;;;;;0.63;0.63;;;3.80;99.90;;;;;;5045604;28;20207;-74
2023/01/26 03:02:07;;;;;;;0.60;0.60;;;3.80;99.90;;;;;;5051741;28;20206;-76
2023/01/26 03:04:32;;;;;;;0.57;0.57;;;3.90;99.90;;;;;;5052032;28;20202;-76
2023/01/26 03:06:58;;;;;;;0.60;0.60;;;3.90;99.90;;;;;;5050439;28;20224;-77
2023/01/26 03:09:24;;;;;;;0.68;0.68;;;4.00;99.90;;;;;;5051340;28;20273;-76
2023/01/26 03:11:50;;;;;;;0.60;0.60;;;4.00;99.90;;;;;;5050771;28;20205;-77
2023/01/26 03:14:16;;;;;;;0.50;0.50;;;3.90;99.90;;;;;;5052371;28;20202;-77
2023/01/26 03:16:42;;;;;;;0.55;0.55;;;3.90;99.90;;;;;;5034420;28;20706;-77
2023/01/26 03:27:25;;;;;;;0.50;0.50;;;3.80;99.90;;;;;;5052315;28;20697;-77
2023/01/26 03:29:51;;;;;;;0.60;0.60;;;3.70;99.90;;;;;;5034013;28;20201;-76
2023/01/26 03:32:17;;;;;;;0.60;0.60;;;3.70;99.90;;;;;;5051837;28;20679;-76
2023/01/26 03:34:43;;;;;;;0.60;0.60;;;3.70;99.90;;;;;;5033081;28;20198;-75
2023/01/26 03:37:09;;;;;;;0.57;0.57;;;3.70;99.90;;;;;;5031917;28;20210;-75
2023/01/26 03:56:17;;;;;;;0.55;0.55;;;3.60;99.90;;;;;;5047751;28;20681;-76
2023/01/26 03:58:47;;;;;;;0.60;0.60;;;3.60;99.90;;;;;;5051673;28;20570;-76
2023/01/26 04:01:19;;;;;;;0.60;0.60;;;3.50;99.90;;;;;;5050566;28;20197;-77
2023/01/26 04:09:15;;;;;;;0.57;0.57;;;3.50;99.90;;;;;;5050068;28;20552;-76
2023/01/26 04:11:41;;;;;;;0.68;0.68;;;3.40;99.90;;;;;;5031521;28;20194;-75
2023/01/26 04:22:24;;;;;;;0.60;0.60;;;3.30;99.90;;;;;;5054783;28;20192;-76
2023/01/26 04:24:49;;;;;;;0.50;0.50;;;3.20;99.90;;;;;;5055436;28;20643;-76
2023/01/26 04:27:15;;;;;;;0.60;0.60;;;3.20;99.90;;;;;;5055372;28;20222;-77
2023/01/26 04:29:41;;;;;;;0.50;0.50;;;3.20;99.90;;;;;;5055354;28;20600;-76
2023/01/26 04:32:06;;;;;;;0.60;0.60;;;3.10;99.90;;;;;;5055212;28;20193;-76
2023/01/26 04:34:32;;;;;;;0.50;0.50;;;3.10;99.90;;;;;;5072061;28;20212;-76
2023/01/26 04:36:58;;;;;;;0.60;0.60;;;3.10;99.90;;;;;;5074707;28;20293;-76
2023/01/26 04:39:24;;;;;;;0.55;0.55;;;3.10;99.90;;;;;;5074794;28;20196;-76
2023/01/26 04:41:49;;;;;;;0.70;0.70;;;3.10;99.90;;;;;;5073733;28;20192;-76
2023/01/26 04:44:15;;;;;;;0.70;0.70;;;3.10;99.90;;;;;;5074256;28;20185;-76
2023/01/26 04:46:41;;;;;;;0.50;0.50;;;3.10;99.90;;;;;;5073515;28;20205;-76
2023/01/26 04:49:07;;;;;;;0.60;0.60;;;3.00;99.90;;;;;;5074991;28;20271;-76
2023/01/26 04:51:33;;;;;;;0.60;0.60;;;3.00;99.90;;;;;;5074855;28;20287;-76
2023/01/26 04:53:59;;;;;;;0.50;0.50;;;3.00;99.90;;;;;;5074632;28;20335;-75
2023/01/26 04:56:28;;;;;;;0.68;0.68;;;2.90;99.90;;;;;;5073954;28;20268;-76
2023/01/26 04:58:57;;;;;;;0.93;0.93;;;3.00;99.90;;;;;;5074547;28;20335;-76
2023/01/26 05:01:23;;;;;;;0.60;0.60;;;3.10;99.90;;;;;;5056030;28;20220;-76
2023/01/26 05:03:49;;;;;;;0.60;0.60;;;3.00;99.90;;;;;;5056274;28;20224;-76
2023/01/26 05:06:14;;;;;;;0.60;0.60;;;3.00;99.90;;;;;;5048930;28;20247;-76
2023/01/26 05:08:40;;;;;;;0.57;0.57;;;3.00;99.90;;;;;;5054168;28;20201;-76
2023/01/26 05:11:06;;;;;;;0.60;0.60;;;2.90;99.90;;;;;;5053274;28;20201;-76
2023/01/26 05:13:34;;;;;;;0.68;0.68;;;2.90;99.90;;;;;;5053648;28;20577;-76
2023/01/26 05:16:00;;;;;;;0.50;0.50;;;2.90;99.90;;;;;;5053857;28;20189;-76
2023/01/26 05:18:26;;;;;;;0.60;0.60;;;2.80;99.90;;;;;;5020471;28;20577;-74
2023/01/26 05:20:52;;;;;;;0.75;0.75;;;2.90;99.90;;;;;;5033062;28;20195;-75
2023/01/26 05:23:17;;;;;;;0.50;0.50;;;2.90;99.90;;;;;;5034293;28;20186;-76
2023/01/26 05:25:43;;;;;;;0.60;0.60;;;2.80;99.90;;;;;;5032948;28;20199;-76
2023/01/26 05:28:09;;;;;;;0.65;0.65;;;2.70;99.90;;;;;;5034368;28;20216;-74
2023/01/26 05:30:34;;;;;;;0.50;0.50;;;2.70;99.90;;;;;;5063367;28;20570;-75
2023/01/26 05:33:05;;;;;;;0.63;0.63;;;2.60;99.90;;;;;;5072076;28;20193;-75
2023/01/26 05:35:31;;;;;;;0.50;0.50;;;2.50;99.90;;;;;;5073666;28;20197;-75
2023/01/26 05:37:57;;;;;;;0.50;0.50;;;2.60;99.90;;;;;;5073780;28;20731;-75
2023/01/26 05:40:23;;;;;;;0.60;0.60;;;2.60;99.90;;;;;;5055637;28;20203;-75
2023/01/26 05:42:49;;;;;;;0.60;0.60;;;2.60;99.90;;;;;;5073580;28;20698;-75
2023/01/26 05:45:15;;;;;;;0.52;0.52;;;2.60;99.90;;;;;;5073891;28;20268;-75
2023/01/26 05:47:43;;;;;;;0.60;0.60;;;2.60;99.90;;;;;;5065028;28;20797;-75
2023/01/26 05:50:10;;;;;;;0.73;0.73;;;2.50;99.90;;;;;;5051816;28;20197;-75
2023/01/26 05:52:36;;;;;;;0.55;0.55;;;2.60;99.90;;;;;;5053595;28;20205;-75
2023/01/26 05:55:02;;;;;;;0.60;0.60;;;2.60;99.90;;;;;;5053620;28;20196;-75
2023/01/26 05:57:28;;;;;;;0.60;0.60;;;2.50;99.90;;;;;;5053060;28;20194;-75
2023/01/26 05:59:53;;;;;;;0.50;0.50;;;2.50;99.90;;;;;;5053472;28;20190;-75
2023/01/26 06:02:20;;;;;;;0.68;0.68;;;2.50;99.90;;;;;;5054770;28;20256;-75
2023/01/26 06:04:46;;;;;;;0.55;0.55;;;2.50;99.90;;;;;;5073166;28;20213;-75
2023/01/26 06:07:12;;;;;;;0.65;0.65;;;2.60;99.90;;;;;;5073303;28;20237;-75
2023/01/26 06:09:39;;;;;;;0.60;0.60;;;2.60;99.90;;;;;;5073137;28;20193;-75
2023/01/26 06:12:05;;;;;;;0.60;0.60;;;2.60;99.90;;;;;;5071988;28;20201;-74
2023/01/26 06:14:31;;;;;;;0.50;0.50;;;2.60;99.90;;;;;;5072837;28;20229;-75
2023/01/26 06:16:57;;;;;;;0.50;0.50;;;2.60;99.90;;;;;;5069313;28;20236;-75
2023/01/26 06:19:22;;;;;;;0.55;0.55;;;2.60;99.90;;;;;;5034395;28;20194;-76
2023/01/26 06:21:48;;;;;;;0.60;0.60;;;2.50;99.90;;;;;;5053140;28;20194;-75
2023/01/26 06:24:14;;;;;;;0.60;0.60;;;2.40;99.90;;;;;;5053229;28;20186;-75
2023/01/26 06:26:40;;;;;;;0.80;0.80;;;2.40;99.90;;;;;;5066084;28;20395;-74
2023/01/26 06:29:06;;;;;;;0.60;0.60;;;2.40;99.90;;;;;;5070903;28;20196;-74
2023/01/26 06:31:31;;;;;;;0.60;0.60;;;2.40;99.90;;;;;;5071172;28;20213;-76
2023/01/26 06:33:57;;;;;;;0.65;0.65;;;2.30;99.90;;;;;;5072897;28;20228;-76
2023/01/26 06:36:23;;;;;;;0.60;0.60;;;2.30;99.90;;;;;;5070239;28;20196;-77
2023/01/26 06:38:54;;;;;;;0.60;0.60;;;2.20;99.90;;;;;;5072771;28;20208;-77
2023/01/26 06:41:20;;;;;;;0.70;0.70;;;2.20;99.90;;;;;;5072394;28;20188;-75
2023/01/26 06:43:47;;;;;;;0.60;0.60;;;2.20;99.90;;;;;;5071594;28;20193;-76
2023/01/26 06:46:14;;;;;;;0.55;0.55;;;2.20;99.90;;;;;;5072555;28;20188;-75
2023/01/26 06:48:40;;;;;;;0.50;0.50;;;2.20;99.90;;;;;;5071976;28;21187;-76
2023/01/26 06:51:14;;;;;;;0.70;0.70;;;2.20;99.90;;;;;;5072730;28;20690;-75
2023/01/26 06:53:46;;;;;;;0.80;0.80;;;2.20;99.90;;;;;;5072156;28;20567;-76
2023/01/26 06:56:12;;;;;;;0.60;0.60;;;2.10;99.90;;;;;;5072169;28;20208;-76
2023/01/26 06:58:38;;;;;;;0.57;0.57;;;2.00;99.90;;;;;;5071484;28;20211;-76
2023/01/26 07:01:04;;;;;;;0.60;0.60;;;2.00;99.90;;;;;;5054003;28;20193;-76
2023/01/26 07:03:30;;;;;;;0.70;0.70;;;2.00;99.90;;;;;;5071564;28;20225;-76
2023/01/26 07:05:56;;;;;;;0.60;0.60;;;2.00;99.90;;;;;;5054437;28;20197;-76
2023/01/26 07:08:22;;;;;;;0.60;0.60;;;2.00;99.90;;;;;;5071922;28;20684;-76
2023/01/26 07:10:51;;;;;;;0.60;0.60;;;1.90;99.90;;;;;;5072019;28;20192;-76
2023/01/26 07:13:17;;;;;;;0.50;0.50;;;2.00;99.90;;;;;;5070506;28;20205;-76
2023/01/26 07:15:42;;;;;;;0.60;0.60;;;1.90;99.90;;;;;;5071952;28;20197;-76
2023/01/26 07:18:08;;;;;;;0.60;0.60;;;1.90;99.90;;;;;;5041207;28;20292;-76
2023/01/26 07:20:35;;;;;;;1.27;1.17;;;1.90;99.90;;;;;;5033811;28;20525;-76
2023/01/26 07:23:01;;;;;;;1.08;1.08;;;1.90;99.90;;;;;;5065144;28;20195;-76
2023/01/26 07:25:27;;;;;;;0.70;0.70;;;1.80;99.90;;;;;;5070956;28;20200;-77
2023/01/26 07:27:56;;;;;;;0.57;0.57;;;1.90;99.90;;;;;;5071093;28;20224;-74
2023/01/26 07:30:22;;;;;;;0.60;0.60;;;1.90;99.90;;;;;;5053190;28;20725;-74
2023/01/26 07:32:48;;;;;;;0.50;0.50;;;1.80;99.90;;;;;;5071852;28;20197;-74
2023/01/26 07:35:14;;;;;;;0.80;0.80;;;1.80;99.90;;;;;;5070763;28;20193;-76
2023/01/26 07:37:39;;;;;;;0.50;0.50;;;1.90;99.90;;;;;;5070847;28;20212;-75
2023/01/26 07:40:06;;;;;;;0.60;0.60;;;1.90;99.90;;;;;;5071072;28;20267;-74
2023/01/26 07:42:32;;;;;;;0.65;0.65;;;1.90;99.90;;;;;;5070076;28;20253;-76
2023/01/26 07:44:58;;;;;;;0.70;0.70;;;1.90;99.90;;;;;;5052822;28;20201;-74
2023/01/26 07:47:24;;;;;;;0.70;0.70;;;1.90;99.90;;;;;;5069838;28;20185;-75
2023/01/26 07:49:53;;;;;;;0.80;0.80;;;1.80;99.90;;;;;;5070208;28;20193;-74
2023/01/26 07:52:19;;;;;;;0.70;0.70;;;1.90;99.90;;;;;;5071988;28;20204;-74
2023/01/26 07:54:44;;;;;;;0.80;0.80;;;1.90;99.90;;;;;;5073868;28;20201;-74
2023/01/26 07:57:11;;;;;;;1.73;1.45;;;1.90;99.90;;;;;;5071209;28;20199;-73
2023/01/26 07:59:37;;;;;;;1.02;0.98;;;1.90;99.90;;;;;;5053073;28;20209;-74
2023/01/26 08:02:03;;;;;;;0.93;0.93;;;1.80;99.90;;;;;;5069651;28;20197;-74
2023/01/26 08:04:28;;;;;;;0.70;0.70;;;1.80;99.90;;;;;;5049876;28;20226;-74
2023/01/26 08:06:54;;;;;;;0.85;0.85;;;1.80;99.90;;;;;;5049920;28;20193;-73
2023/01/26 08:09:20;;;;;;;0.70;0.70;;;1.80;99.90;;;;;;5050967;28;20216;-72
2023/01/26 08:11:46;;;;;;;0.60;0.60;;;1.90;99.90;;;;;;5051150;28;20220;-76
2023/01/26 08:14:11;;;;;;;0.60;0.60;;;2.00;99.90;;;;;;5051407;28;20208;-75
2023/01/26 08:16:37;;;;;;;0.80;0.80;;;2.00;99.90;;;;;;5049149;28;20271;-74
2023/01/26 08:19:03;;;;;;;0.50;0.50;;;2.00;99.90;;;;;;5055918;28;20189;-74
2023/01/26 08:21:29;;;;;;;0.50;0.50;;;2.00;99.90;;;;;;5053103;28;20219;-74
2023/01/26 08:23:54;;;;;;;0.55;0.55;;;2.10;99.90;;;;;;5071060;28;20271;-74
2023/01/26 08:26:20;;;;;;;0.65;0.65;;;2.10;99.90;;;;;;5070754;28;20212;-74
2023/01/26 08:28:47;;;;;;;0.60;0.60;;;2.10;99.90;;;;;;5071085;28;20623;-74
2023/01/26 08:31:18;;;;;;;0.60;0.60;;;2.10;99.90;;;;;;5053071;28;20197;-74
2023/01/26 08:33:45;;;;;;;0.60;0.60;;;2.10;99.90;;;;;;5070752;28;20314;-74
2023/01/26 08:36:13;;;;;;;0.60;0.60;;;2.10;99.90;;;;;;5070848;28;20203;-74
2023/01/26 08:38:39;;;;;;;1.70;1.58;;;2.10;99.90;;;;;;5070278;28;20318;-74
2023/01/26 08:41:06;;;;;;;0.60;0.60;;;2.00;99.90;;;;;;5052939;28;20246;-74
2023/01/26 08:43:31;;;;;;;0.63;0.63;;;1.90;99.90;;;;;;5070779;28;20188;-74
2023/01/26 08:45:57;;;;;;;0.70;0.70;;;1.90;99.90;;;;;;5070896;28;20261;-74
2023/01/26 08:48:23;;;;;;;0.68;0.68;;;2.00;99.90;;;;;;5056334;28;20198;-74
2023/01/26 08:50:54;;;;;;;0.60;0.60;;;2.00;99.90;;;;;;5049773;28;20251;-74
2023/01/26 08:53:19;;;;;;;0.70;0.70;;;1.90;99.90;;;;;;5050685;28;20228;-74
2023/01/26 08:55:45;;;;;;;0.55;0.55;;;1.90;99.90;;;;;;5050642;28;20197;-75
2023/01/26 08:58:11;;;;;;;0.60;0.60;;;1.90;99.90;;;;;;5049115;28;20409;-74
2023/01/26 09:00:36;;;;;;;0.55;0.55;;;1.90;99.90;;;;;;5050348;28;20227;-74
2023/01/26 09:03:04;;;;;;;0.60;0.60;;;1.90;99.90;;;;;;5057520;28;20228;-74
2023/01/26 09:05:35;;;;;;;0.60;0.60;;;2.00;99.90;;;;;;5070245;28;20197;-74
2023/01/26 09:08:02;;;;;;;0.50;0.50;;;2.00;99.90;;;;;;5055450;28;20552;-74
2023/01/26 09:10:28;;;;;;;0.70;0.70;;;2.10;99.90;;;;;;5074077;28;20207;-74
2023/01/26 09:12:55;;;;;;;0.70;0.70;;;2.20;99.90;;;;;;5074420;28;20687;-75
2023/01/26 09:15:21;;;;;;;0.70;0.70;;;2.20;99.90;;;;;;5055730;28;20196;-74
2023/01/26 09:17:50;;;;;;;0.60;0.60;;;2.30;99.90;;;;;;5043231;28;20281;-74
2023/01/26 09:20:17;;;;;;;0.70;0.70;;;2.30;99.90;;;;;;5033051;28;20730;-75
2023/01/26 09:22:42;;;;;;;0.60;0.60;;;2.30;99.90;;;;;;5033045;28;20400;-74
2023/01/26 09:25:09;;;;;;;0.50;0.50;;;2.30;99.90;;;;;;5033595;28;20540;-75
2023/01/26 09:27:35;;;;;;;0.60;0.60;;;2.40;99.90;;;;;;5032101;28;20431;-74
2023/01/26 09:30:02;;;;;;;1.58;1.48;;;2.40;99.90;;;;;;5034099;28;20194;-74
2023/01/26 09:32:28;;;;;;;1.02;1.02;;;2.50;99.90;;;;;;5033349;28;20198;-74
2023/01/26 09:34:54;;;;;;;0.60;0.60;;;2.50;99.90;;;;;;5033913;28;20186;-75
2023/01/26 09:37:21;;;;;;;0.60;0.60;;;2.50;99.90;;;;;;5033592;28;20285;-74
2023/01/26 09:39:46;;;;;;;0.60;0.60;;;2.50;99.90;;;;;;5031112;28;20252;-74
2023/01/26 09:42:15;;;;;;;0.60;0.60;;;2.60;99.90;;;;;;5033293;28;20190;-74
2023/01/26 09:45:06;;;;;;;1.83;1.52;;;2.70;99.90;;;;;;5031949;28;20385;-74
2023/01/26 09:47:52;;;;;;;0.63;0.63;;;2.80;99.90;;;;;;5039187;28;20557;-74
2023/01/26 09:50:39;;;;;;;0.70;0.70;;;2.90;99.90;;;;;;5035313;28;20663;-74
2023/01/26 09:53:18;;;;;;;0.60;0.60;;;2.90;99.90;;;;;;5053157;28;20194;-75
2023/01/26 09:55:47;;;;;;;0.60;0.60;;;3.00;99.90;;;;;;5052432;28;20209;-75
2023/01/26 09:58:48;;;;;;;0.63;0.63;;;3.10;99.90;;;;;;5053360;28;20686;-74
2023/01/26 10:01:42;;;;;;;0.60;0.60;;;3.20;99.90;;;;;;5013696;28;20679;-74
2023/01/26 10:04:35;;;;;;;0.57;0.57;;;3.20;99.90;;;;;;5047621;28;20596;-74
2023/01/26 10:07:11;;;;;;;0.90;0.90;;;3.30;99.90;;;;;;5046724;28;20683;-74
2023/01/26 10:09:38;;;;;;;0.80;0.80;;;3.30;99.90;;;;;;5035007;28;20670;-74
2023/01/26 10:12:14;;;;;;;2.58;1.95;;;3.30;99.90;;;;;;5069211;28;20204;-74
2023/01/26 10:15:09;;;;;;;0.60;0.60;;;3.40;99.90;;;;;;5072907;28;20696;-74
2023/01/26 10:17:41;;;;;;;0.50;0.50;;;3.50;99.90;;;;;;5043126;28;20727;-74
2023/01/26 10:20:42;;;;;;;0.50;0.50;;;3.60;99.90;;;;;;5032387;28;20194;-74
2023/01/26 10:23:15;;;;;;;0.60;0.60;;;3.70;99.90;;;;;;5020905;28;20221;-74
2023/01/26 10:25:45;;;;;;;0.50;0.50;;;3.80;99.90;;;;;;5031312;28;20217;-74
2023/01/26 10:28:26;;;;;;;0.60;0.60;;;3.80;99.90;;;;;;5032970;28;20205;-74
2023/01/26 10:30:53;;;;;;;0.50;0.50;;;3.80;99.90;;;;;;5032902;28;20252;-74
2023/01/26 10:33:32;;;;;;;0.60;0.60;;;3.80;99.90;;;;;;5032472;28;20652;-75
2023/01/26 10:36:03;;;;;;;0.70;0.70;;;3.80;99.90;;;;;;5031640;28;20733;-74
2023/01/26 10:38:39;;;;;;;0.60;0.60;;;3.80;99.90;;;;;;5032488;28;20198;-74
2023/01/26 10:41:26;;;;;;;0.80;0.80;;;3.70;99.90;;;;;;5074395;28;20218;-74
2023/01/26 10:44:26;;;;;;;0.75;0.75;;;3.70;99.90;;;;;;5066242;28;20731;-73
2023/01/26 10:47:04;;;;;;;0.70;0.70;;;3.70;99.90;;;;;;5054290;28;20201;-74
2023/01/26 10:49:30;;;;;;;0.65;0.65;;;3.80;99.90;;;;;;5054342;28;20643;-74
2023/01/26 10:52:20;;;;;;;0.50;0.50;;;3.90;99.90;;;;;;5054113;28;20271;-74
2023/01/26 10:54:47;;;;;;;0.55;0.55;;;3.90;99.90;;;;;;5053954;28;20598;-74
2023/01/26 10:57:15;;;;;;;0.50;0.50;;;3.90;99.90;;;;;;5053837;28;20340;-73
2023/01/26 11:00:06;;;;;;;0.60;0.60;;;3.90;99.90;;;;;;5053695;28;20216;-74
2023/01/26 11:02:35;;;;;;;0.50;0.50;;;3.80;99.90;;;;;;5050719;28;20241;-74
2023/01/26 11:05:02;;;;;;;0.60;0.60;;;3.70;99.90;;;;;;5053713;28;20197;-74
2023/01/26 11:07:34;;;;;;;0.60;0.60;;;3.70;99.90;;;;;;5053350;28;20212;-73
2023/01/26 11:10:35;;;;;;;0.60;0.60;;;3.80;99.90;;;;;;5053632;28;20638;-74
2023/01/26 11:13:19;;;;;;;0.50;0.50;;;3.80;99.90;;;;;;5021300;28;20209;-74
2023/01/26 11:15:59;;;;;;;0.60;0.60;;;3.80;99.90;;;;;;5053142;28;20197;-74
2023/01/26 11:18:41;;;;;;;0.60;0.60;;;3.80;99.90;;;;;;5031813;28;20664;-73
2023/01/26 11:21:26;;;;;;;0.85;0.85;;;3.90;99.90;;;;;;5032212;28;20204;-74
2023/01/26 11:24:03;;;;;;;0.68;0.68;;;3.90;99.90;;;;;;5032260;28;20204;-74
2023/01/26 11:26:35;;;;;;;0.75;0.75;;;3.80;99.90;;;;;;5044792;28;20259;-74
2023/01/26 11:29:19;;;;;;;0.60;0.60;;;3.70;99.90;;;;;;5052997;28;20193;-74
2023/01/26 11:31:57;;;;;;;0.50;0.50;;;3.70;99.90;;;;;;5052161;28;20259;-74
2023/01/26 11:34:41;;;;;;;0.50;0.50;;;3.70;99.90;;;;;;5052885;28;20199;-74
2023/01/26 11:37:25;;;;;;;0.50;0.50;;;3.70;99.90;;;;;;5053167;28;20342;-75
2023/01/26 11:40:09;;;;;;;0.40;0.40;;;3.80;99.90;;;;;;5052934;28;20201;-75
2023/01/26 11:42:50;;;;;;;0.43;0.43;;;3.90;99.90;;;;;;5052781;28;20186;-75
2023/01/26 11:45:35;;;;;;;0.60;0.60;;;3.90;99.90;;;;;;5071881;28;20599;-74
2023/01/26 11:48:00;;;;;;;0.60;0.60;;;4.00;99.90;;;;;;5063473;28;20581;-74
2023/01/26 11:50:34;;;;;;;0.63;0.63;;;3.90;99.90;;;;;;5052764;28;20189;-73
2023/01/26 11:53:22;;;;;;;0.60;0.60;;;3.90;99.90;;;;;;5053213;28;20212;-74
2023/01/26 11:56:14;;;;;;;0.50;0.50;;;3.80;99.90;;;;;;5052941;28;20201;-74
2023/01/26 11:58:45;;;;;;;0.60;0.60;;;3.70;99.90;;;;;;5034807;28;20221;-75
2023/01/26 12:01:36;;;;;;;0.60;0.60;;;3.60;99.90;;;;;;5052766;28;20280;-73
2023/01/26 12:04:02;;;;;;;0.60;0.60;;;3.50;99.90;;;;;;5068105;28;20221;-74
2023/01/26 12:06:43;;;;;;;0.55;0.55;;;3.50;99.90;;;;;;5072469;28;20642;-74
2023/01/26 12:09:20;;;;;;;0.50;0.50;;;3.50;99.90;;;;;;5054818;28;20203;-75
2023/01/26 12:11:59;;;;;;;0.60;0.60;;;3.40;99.90;;;;;;5072920;28;20266;-73
2023/01/26 12:14:42;;;;;;;0.60;0.60;;;3.40;99.90;;;;;;5071445;28;20282;-74
2023/01/26 12:17:31;;;;;;;0.50;0.50;;;3.40;99.90;;;;;;5068147;28;20670;-73
2023/01/26 12:20:18;;;;;;;0.50;0.50;;;3.40;99.90;;;;;;5051507;28;20197;-74
2023/01/26 12:23:07;;;;;;;0.60;0.60;;;3.20;99.90;;;;;;5052546;28;20189;-74
2023/01/26 12:25:43;;;;;;;0.60;0.60;;;3.20;99.90;;;;;;5032956;28;20216;-74
2023/01/26 12:28:15;;;;;;;0.60;0.60;;;3.20;99.90;;;;;;5052641;28;20201;-74
2023/01/26 12:31:11;;;;;;;0.68;0.68;;;3.10;99.90;;;;;;5052282;28;20663;-73
2023/01/26 12:33:38;;;;;;;0.60;0.60;;;3.10;99.90;;;;;;5052283;28;20682;-73
2023/01/26 12:36:40;;;;;;;0.40;0.40;;;3.10;99.90;;;;;;5052297;28;20212;-74
2023/01/26 12:39:34;;;;;;;0.50;0.50;;;3.10;99.90;;;;;;5052537;28;20255;-73
2023/01/26 12:42:14;;;;;;;0.70;0.70;;;3.00;99.90;;;;;;5033904;28;20672;-73
2023/01/26 12:44:53;;;;;;;0.60;0.60;;;3.00;99.90;;;;;;5047844;28;20201;-74
2023/01/26 12:47:28;;;;;;;0.60;0.60;;;2.90;99.90;;;;;;5056500;28;20193;-72
2023/01/26 12:50:08;;;;;;;0.60;0.60;;;2.80;99.90;;;;;;5056344;28;20233;-74
2023/01/26 12:52:44;;;;;;;0.60;0.60;;;2.90;99.90;;;;;;5056134;28;20254;-74
2023/01/26 12:55:28;;;;;;;0.50;0.50;;;2.80;99.90;;;;;;5056277;28;20717;-73
2023/01/26 12:58:00;;;;;;;0.50;0.50;;;2.80;99.90;;;;;;5056202;28;20205;-74
2023/01/26 13:00:32;;;;;;;0.60;0.60;;;2.70;99.90;;;;;;5063317;28;20589;-73
2023/01/26 13:03:12;;;;;;;0.60;0.60;;;2.80;99.90;;;;;;5076064;28;20718;-74
2023/01/26 13:05:57;;;;;;;0.60;0.60;;;2.80;99.90;;;;;;5058282;28;20207;-75
2023/01/26 13:08:31;;;;;;;0.57;0.57;;;2.70;99.90;;;;;;5075857;28;20238;-73
2023/01/26 13:11:08;;;;;;;0.60;0.60;;;2.70;99.90;;;;;;5074805;28;20236;-73
2023/01/26 13:13:34;;;;;;;0.50;0.50;;;2.60;99.90;;;;;;5057856;28;20258;-74
2023/01/26 13:16:31;;;;;;;0.60;0.60;;;2.70;99.90;;;;;;5076068;28;20679;-73
2023/01/26 13:19:02;;;;;;;1.88;1.58;;;2.60;99.90;;;;;;5038226;28;20304;-73
2023/01/26 13:21:43;;;;;;;0.65;0.65;;;2.60;99.90;;;;;;5037720;28;20243;-74
2023/01/26 13:24:15;;;;;;;0.60;0.60;;;2.50;99.90;;;;;;5055924;28;20189;-74
2023/01/26 13:26:44;;;;;;;0.70;0.70;;;2.50;99.90;;;;;;5055483;28;20240;-73
2023/01/26 13:29:27;;;;;;;0.70;0.70;;;2.40;99.90;;;;;;5037651;28;20668;-74
2023/01/26 13:31:58;;;;;;;0.52;0.52;;;2.40;99.90;;;;;;5037458;28;20284;-74
2023/01/26 13:34:40;;;;;;;0.70;0.70;;;2.40;99.90;;;;;;5055528;28;20190;-73
2023/01/26 13:37:19;;;;;;;0.65;0.65;;;2.40;99.90;;;;;;5068931;28;20224;-73
2023/01/26 13:39:51;;;;;;;0.70;0.70;;;2.40;99.90;;;;;;5070882;28;20663;-73
2023/01/26 13:42:24;;;;;;;0.60;0.60;;;2.30;99.90;;;;;;5055441;28;20198;-74
2023/01/26 13:45:12;;;;;;;0.60;0.60;;;2.30;99.90;;;;;;5055468;28;20276;-73
2023/01/26 13:47:42;;;;;;;0.60;0.60;;;2.30;99.90;;;;;;5055131;28;20348;-74
2023/01/26 13:50:42;;;;;;;0.60;0.60;;;2.20;99.90;;;;;;5055208;28;20189;-73
2023/01/26 13:53:36;;;;;;;0.70;0.70;;;2.30;99.90;;;;;;5031892;28;20217;-74
2023/01/26 13:56:06;;;;;;;0.60;0.60;;;2.20;99.90;;;;;;5044031;28;20250;-73
2023/01/26 13:58:32;;;;;;;0.80;0.80;;;2.20;99.90;;;;;;5054842;28;20693;-73
2023/01/26 14:01:02;;;;;;;0.60;0.60;;;2.20;99.90;;;;;;5055038;28;20190;-73
2023/01/26 14:03:29;;;;;;;0.70;0.70;;;2.20;99.90;;;;;;5053410;28;20225;-75